Arcadia, Oklahoma
Current Conditions -  °F | °C
As of 6:53 AM on Friday 24 Oct 2014 (Local Time) from KGOK Reporting Station
Clear Clear  
Wind Chill: 59°   Ceiling: Unl
Heat Index: 59°   Visibility: 10mi
Dew Point: 55°   Wind: 10mph
Humidity: 87%   Direction: 160°SSE
Pressure: 30.08"   Gusts: NA
Location:  35.67°N, 97.33°W
Report Text: KGOK 241153Z AUTO 16009KT 10SM CLR 15/13 A3008 RMK AO2 SLP181 T01500128 10172 20150 55000
Loading
Personal Weather Stations






























Interactive Weather Map
Tropical Storm Tracking
New forecast layout! Learn more

10-Day Weather Forecast

Advertisements
Track Severe Weather on mobile